sensor_id;sensor_type;location;lat;lon;timestamp;temperature;humidity
421;DHT22;63667;49.046;8.468;2022-12-10T00:01:29;3.30;99.60
421;DHT22;63667;49.046;8.468;2022-12-10T00:03:56;3.20;99.60
421;DHT22;63667;49.046;8.468;2022-12-10T00:06:26;3.30;99.60
421;DHT22;63667;49.046;8.468;2022-12-10T00:08:54;3.30;99.60
421;DHT22;63667;49.046;8.468;2022-12-10T00:11:23;3.20;99.60
421;DHT22;63667;49.046;8.468;2022-12-10T00:13:51;3.20;99.60
421;DHT22;63667;49.046;8.468;2022-12-10T00:16:20;3.10;99.60
421;DHT22;63667;49.046;8.468;2022-12-10T00:18:52;3.20;99.60
421;DHT22;63667;49.046;8.468;2022-12-10T00:21:25;3.20;99.60
421;DHT22;63667;49.046;8.468;2022-12-10T00:23:52;3.10;99.60
421;DHT22;63667;49.046;8.468;2022-12-10T00:26:25;3.20;99.60
421;DHT22;63667;49.046;8.468;2022-12-10T00:28:53;3.20;99.60
421;DHT22;63667;49.046;8.468;2022-12-10T00:31:21;3.20;99.60
421;DHT22;63667;49.046;8.468;2022-12-10T00:33:48;3.20;99.60
421;DHT22;63667;49.046;8.468;2022-12-10T00:36:21;3.20;99.60
421;DHT22;63667;49.046;8.468;2022-12-10T00:38:49;3.10;99.60
421;DHT22;63667;49.046;8.468;2022-12-10T00:41:16;3.10;99.60
421;DHT22;63667;49.046;8.468;2022-12-10T00:43:43;3.10;99.60
421;DHT22;63667;49.046;8.468;2022-12-10T00:46:12;3.20;99.60
421;DHT22;63667;49.046;8.468;2022-12-10T00:48:41;3.20;99.60
421;DHT22;63667;49.046;8.468;2022-12-10T00:51:11;3.10;99.60
421;DHT22;63667;49.046;8.468;2022-12-10T00:53:43;3.00;99.60
421;DHT22;63667;49.046;8.468;2022-12-10T00:56:12;3.00;99.60
421;DHT22;63667;49.046;8.468;2022-12-10T00:58:39;3.10;99.60
421;DHT22;63667;49.046;8.468;2022-12-10T01:01:12;3.10;99.60
421;DHT22;63667;49.046;8.468;2022-12-10T01:03:40;3.10;99.60
421;DHT22;63667;49.046;8.468;2022-12-10T01:06:26;3.00;99.60
421;DHT22;63667;49.046;8.468;2022-12-10T01:08:56;3.00;99.60
421;DHT22;63667;49.046;8.468;2022-12-10T01:11:26;3.00;99.60
421;DHT22;63667;49.046;8.468;2022-12-10T01:13:54;3.00;99.60
421;DHT22;63667;49.046;8.468;2022-12-10T01:16:22;3.10;99.60
421;DHT22;63667;49.046;8.468;2022-12-10T01:18:52;3.10;99.60
421;DHT22;63667;49.046;8.468;2022-12-10T01:21:19;3.10;99.60
421;DHT22;63667;49.046;8.468;2022-12-10T01:23:48;3.10;99.60
421;DHT22;63667;49.046;8.468;2022-12-10T01:26:18;3.00;99.60
421;DHT22;63667;49.046;8.468;2022-12-10T01:28:46;3.00;99.60
421;DHT22;63667;49.046;8.468;2022-12-10T01:31:17;2.90;99.60
421;DHT22;63667;49.046;8.468;2022-12-10T01:33:44;2.90;99.60
421;DHT22;63667;49.046;8.468;2022-12-10T01:36:17;2.90;99.60
421;DHT22;63667;49.046;8.468;2022-12-10T01:38:45;2.90;99.60
421;DHT22;63667;49.046;8.468;2022-12-10T01:41:19;2.90;99.60
421;DHT22;63667;49.046;8.468;2022-12-10T01:43:58;2.90;99.60
421;DHT22;63667;49.046;8.468;2022-12-10T01:46:32;2.80;99.60
421;DHT22;63667;49.046;8.468;2022-12-10T01:49:00;2.80;99.60
421;DHT22;63667;49.046;8.468;2022-12-10T01:51:29;2.90;99.60
421;DHT22;63667;49.046;8.468;2022-12-10T01:53:57;2.80;99.60
421;DHT22;63667;49.046;8.468;2022-12-10T01:56:25;2.80;99.60
421;DHT22;63667;49.046;8.468;2022-12-10T01:58:56;2.90;99.60
421;DHT22;63667;49.046;8.468;2022-12-10T02:07:13;2.90;99.60
421;DHT22;63667;49.046;8.468;2022-12-10T02:17:37;2.90;99.60
421;DHT22;63667;49.046;8.468;2022-12-10T02:20:11;2.90;99.60
421;DHT22;63667;49.046;8.468;2022-12-10T02:23:01;3.00;99.60
421;DHT22;63667;49.046;8.468;2022-12-10T02:25:56;2.90;99.60
421;DHT22;63667;49.046;8.468;2022-12-10T02:31:20;2.80;99.60
421;DHT22;63667;49.046;8.468;2022-12-10T02:33:53;2.80;99.60
421;DHT22;63667;49.046;8.468;2022-12-10T02:36:22;2.90;99.60
421;DHT22;63667;49.046;8.468;2022-12-10T02:38:51;2.80;99.60
421;DHT22;63667;49.046;8.468;2022-12-10T02:41:34;2.70;99.60
421;DHT22;63667;49.046;8.468;2022-12-10T02:44:05;2.80;99.60
421;DHT22;63667;49.046;8.468;2022-12-10T02:46:34;2.80;99.60
421;DHT22;63667;49.046;8.468;2022-12-10T02:49:06;2.80;99.60
421;DHT22;63667;49.046;8.468;2022-12-10T02:51:33;2.70;99.60
421;DHT22;63667;49.046;8.468;2022-12-10T02:54:03;2.70;99.60
421;DHT22;63667;49.046;8.468;2022-12-10T02:56:36;2.70;99.60
421;DHT22;63667;49.046;8.468;2022-12-10T03:07:10;2.50;99.60
421;DHT22;63667;49.046;8.468;2022-12-10T03:09:55;2.60;99.60
421;DHT22;63667;49.046;8.468;2022-12-10T03:12:35;2.60;99.60
421;DHT22;63667;49.046;8.468;2022-12-10T03:15:07;2.70;99.60
421;DHT22;63667;49.046;8.468;2022-12-10T03:17:35;2.60;99.60
421;DHT22;63667;49.046;8.468;2022-12-10T03:20:13;2.60;99.60
421;DHT22;63667;49.046;8.468;2022-12-10T03:22:44;2.60;99.60
421;DHT22;63667;49.046;8.468;2022-12-10T03:25:17;2.60;99.60
421;DHT22;63667;49.046;8.468;2022-12-10T03:27:47;2.70;99.60
421;DHT22;63667;49.046;8.468;2022-12-10T03:30:16;2.70;99.60
421;DHT22;63667;49.046;8.468;2022-12-10T03:32:43;2.70;99.60
421;DHT22;63667;49.046;8.468;2022-12-10T03:35:11;2.60;99.60
421;DHT22;63667;49.046;8.468;2022-12-10T03:37:40;2.70;99.60
421;DHT22;63667;49.046;8.468;2022-12-10T03:40:08;2.70;99.60
421;DHT22;63667;49.046;8.468;2022-12-10T03:42:36;2.60;99.60
421;DHT22;63667;49.046;8.468;2022-12-10T03:45:03;2.50;99.60
421;DHT22;63667;49.046;8.468;2022-12-10T03:47:30;2.50;99.60
421;DHT22;63667;49.046;8.468;2022-12-10T03:49:56;2.50;99.60
421;DHT22;63667;49.046;8.468;2022-12-10T03:52:22;2.60;99.60
421;DHT22;63667;49.046;8.468;2022-12-10T03:54:48;2.60;99.60
421;DHT22;63667;49.046;8.468;2022-12-10T03:57:15;2.50;99.60
421;DHT22;63667;49.046;8.468;2022-12-10T03:59:41;2.50;99.60
421;DHT22;63667;49.046;8.468;2022-12-10T04:02:08;2.50;99.60
421;DHT22;63667;49.046;8.468;2022-12-10T04:04:34;2.50;99.60
421;DHT22;63667;49.046;8.468;2022-12-10T04:07:00;2.50;99.60
421;DHT22;63667;49.046;8.468;2022-12-10T04:09:27;2.30;99.60
421;DHT22;63667;49.046;8.468;2022-12-10T04:11:57;2.50;99.60
421;DHT22;63667;49.046;8.468;2022-12-10T04:14:25;2.70;99.60
421;DHT22;63667;49.046;8.468;2022-12-10T04:17:10;2.80;99.60
421;DHT22;63667;49.046;8.468;2022-12-10T04:19:37;2.60;99.60
421;DHT22;63667;49.046;8.468;2022-12-10T04:22:03;2.50;99.60
421;DHT22;63667;49.046;8.468;2022-12-10T04:24:48;2.40;99.60
421;DHT22;63667;49.046;8.468;2022-12-10T04:27:38;2.40;99.60
421;DHT22;63667;49.046;8.468;2022-12-10T04:30:10;2.50;99.60
421;DHT22;63667;49.046;8.468;2022-12-10T04:32:37;2.40;99.60
421;DHT22;63667;49.046;8.468;2022-12-10T04:35:04;2.40;99.60
421;DHT22;63667;49.046;8.468;2022-12-10T04:37:30;2.40;99.60
421;DHT22;63667;49.046;8.468;2022-12-10T04:39:56;2.30;99.60
421;DHT22;63667;49.046;8.468;2022-12-10T04:42:23;2.40;99.60
421;DHT22;63667;49.046;8.468;2022-12-10T04:44:51;2.40;99.60
421;DHT22;63667;49.046;8.468;2022-12-10T04:47:18;2.30;99.60
421;DHT22;63667;49.046;8.468;2022-12-10T04:49:44;2.40;99.60
421;DHT22;63667;49.046;8.468;2022-12-10T04:52:13;2.40;99.60
421;DHT22;63667;49.046;8.468;2022-12-10T04:54:41;2.40;99.60
421;DHT22;63667;49.046;8.468;2022-12-10T04:57:08;2.40;99.60
421;DHT22;63667;49.046;8.468;2022-12-10T04:59:36;2.50;99.60
421;DHT22;63667;49.046;8.468;2022-12-10T05:02:04;2.40;99.60
421;DHT22;63667;49.046;8.468;2022-12-10T05:04:31;2.40;99.60
421;DHT22;63667;49.046;8.468;2022-12-10T05:06:59;2.40;99.60
421;DHT22;63667;49.046;8.468;2022-12-10T05:09:27;2.30;99.60
421;DHT22;63667;49.046;8.468;2022-12-10T05:11:54;2.30;99.60
421;DHT22;63667;49.046;8.468;2022-12-10T05:14:21;2.30;99.60
421;DHT22;63667;49.046;8.468;2022-12-10T05:16:50;2.30;99.60
421;DHT22;63667;49.046;8.468;2022-12-10T05:19:17;2.30;99.60
421;DHT22;63667;49.046;8.468;2022-12-10T05:21:47;2.30;99.60
421;DHT22;63667;49.046;8.468;2022-12-10T05:24:32;2.30;99.60
421;DHT22;63667;49.046;8.468;2022-12-10T05:27:01;2.30;99.60
421;DHT22;63667;49.046;8.468;2022-12-10T05:29:28;2.30;99.60
421;DHT22;63667;49.046;8.468;2022-12-10T05:31:56;2.30;99.60
421;DHT22;63667;49.046;8.468;2022-12-10T05:34:23;2.30;99.60
421;DHT22;63667;49.046;8.468;2022-12-10T05:36:50;2.30;99.60
421;DHT22;63667;49.046;8.468;2022-12-10T05:39:18;2.30;99.60
421;DHT22;63667;49.046;8.468;2022-12-10T05:41:46;2.30;99.60
421;DHT22;63667;49.046;8.468;2022-12-10T05:44:14;2.40;99.60
421;DHT22;63667;49.046;8.468;2022-12-10T05:46:41;2.40;99.60
421;DHT22;63667;49.046;8.468;2022-12-10T05:49:08;2.50;99.60
421;DHT22;63667;49.046;8.468;2022-12-10T05:51:37;2.40;99.60
421;DHT22;63667;49.046;8.468;2022-12-10T05:54:05;2.40;99.60
421;DHT22;63667;49.046;8.468;2022-12-10T05:56:35;2.50;99.60
421;DHT22;63667;49.046;8.468;2022-12-10T05:59:03;2.40;99.60
421;DHT22;63667;49.046;8.468;2022-12-10T06:01:33;2.40;99.60
421;DHT22;63667;49.046;8.468;2022-12-10T06:04:02;2.40;99.60
421;DHT22;63667;49.046;8.468;2022-12-10T06:06:33;2.40;99.60
421;DHT22;63667;49.046;8.468;2022-12-10T06:09:06;2.40;99.60
421;DHT22;63667;49.046;8.468;2022-12-10T06:11:33;2.40;99.60
421;DHT22;63667;49.046;8.468;2022-12-10T06:14:01;2.30;99.60
421;DHT22;63667;49.046;8.468;2022-12-10T06:16:29;2.30;99.60
421;DHT22;63667;49.046;8.468;2022-12-10T06:18:56;2.30;99.60
421;DHT22;63667;49.046;8.468;2022-12-10T06:21:24;2.30;99.60
421;DHT22;63667;49.046;8.468;2022-12-10T06:23:51;2.30;99.60
421;DHT22;63667;49.046;8.468;2022-12-10T06:26:41;2.30;99.60
421;DHT22;63667;49.046;8.468;2022-12-10T06:29:09;2.30;99.60
421;DHT22;63667;49.046;8.468;2022-12-10T06:31:36;2.30;99.60
421;DHT22;63667;49.046;8.468;2022-12-10T06:34:03;2.20;99.60
421;DHT22;63667;49.046;8.468;2022-12-10T06:36:31;2.20;99.60
421;DHT22;63667;49.046;8.468;2022-12-10T06:38:59;2.30;99.60
421;DHT22;63667;49.046;8.468;2022-12-10T06:41:27;2.30;99.60
421;DHT22;63667;49.046;8.468;2022-12-10T06:43:54;2.30;99.60
421;DHT22;63667;49.046;8.468;2022-12-10T06:46:25;2.30;99.60
421;DHT22;63667;49.046;8.468;2022-12-10T06:48:54;2.30;99.60
421;DHT22;63667;49.046;8.468;2022-12-10T06:51:22;2.40;99.60
421;DHT22;63667;49.046;8.468;2022-12-10T06:53:49;2.40;99.60
421;DHT22;63667;49.046;8.468;2022-12-10T06:56:19;2.30;99.60
421;DHT22;63667;49.046;8.468;2022-12-10T06:58:47;2.20;99.60
421;DHT22;63667;49.046;8.468;2022-12-10T07:01:19;2.20;99.60
421;DHT22;63667;49.046;8.468;2022-12-10T07:03:54;2.10;99.60
421;DHT22;63667;49.046;8.468;2022-12-10T07:06:22;2.20;99.60
421;DHT22;63667;49.046;8.468;2022-12-10T07:08:51;2.00;99.60
421;DHT22;63667;49.046;8.468;2022-12-10T07:11:20;2.10;99.60
421;DHT22;63667;49.046;8.468;2022-12-10T07:13:48;2.10;99.60
421;DHT22;63667;49.046;8.468;2022-12-10T07:18:43;2.20;99.60
421;DHT22;63667;49.046;8.468;2022-12-10T07:21:22;2.10;99.60
421;DHT22;63667;49.046;8.468;2022-12-10T07:23:51;2.20;99.60
421;DHT22;63667;49.046;8.468;2022-12-10T07:26:19;2.10;99.60
421;DHT22;63667;49.046;8.468;2022-12-10T07:28:47;2.10;99.60
421;DHT22;63667;49.046;8.468;2022-12-10T07:31:14;2.20;99.60
421;DHT22;63667;49.046;8.468;2022-12-10T07:33:41;2.10;99.60
421;DHT22;63667;49.046;8.468;2022-12-10T07:36:10;2.10;99.60
421;DHT22;63667;49.046;8.468;2022-12-10T07:38:38;2.20;99.60
421;DHT22;63667;49.046;8.468;2022-12-10T07:41:07;2.20;99.60
421;DHT22;63667;49.046;8.468;2022-12-10T07:43:35;2.20;99.60
421;DHT22;63667;49.046;8.468;2022-12-10T07:46:24;2.10;99.60
421;DHT22;63667;49.046;8.468;2022-12-10T07:48:52;2.20;99.60
421;DHT22;63667;49.046;8.468;2022-12-10T07:51:20;2.20;99.60
421;DHT22;63667;49.046;8.468;2022-12-10T07:53:51;2.40;99.60
421;DHT22;63667;49.046;8.468;2022-12-10T07:56:19;2.20;99.60
421;DHT22;63667;49.046;8.468;2022-12-10T07:58:48;2.30;99.60
421;DHT22;63667;49.046;8.468;2022-12-10T08:01:18;2.30;99.60
421;DHT22;63667;49.046;8.468;2022-12-10T08:03:45;2.40;99.60
421;DHT22;63667;49.046;8.468;2022-12-10T08:06:15;2.40;99.60
421;DHT22;63667;49.046;8.468;2022-12-10T08:08:46;2.40;99.60
421;DHT22;63667;49.046;8.468;2022-12-10T08:11:15;2.40;99.60
421;DHT22;63667;49.046;8.468;2022-12-10T08:13:43;2.30;99.60
421;DHT22;63667;49.046;8.468;2022-12-10T08:16:15;2.40;99.60
421;DHT22;63667;49.046;8.468;2022-12-10T08:18:43;2.40;99.60
421;DHT22;63667;49.046;8.468;2022-12-10T08:21:18;2.30;99.60
421;DHT22;63667;49.046;8.468;2022-12-10T08:23:46;2.30;99.60
421;DHT22;63667;49.046;8.468;2022-12-10T08:26:19;2.40;99.60
421;DHT22;63667;49.046;8.468;2022-12-10T08:28:47;2.40;99.60
421;DHT22;63667;49.046;8.468;2022-12-10T08:31:15;2.40;99.60
421;DHT22;63667;49.046;8.468;2022-12-10T08:33:42;2.50;99.60
421;DHT22;63667;49.046;8.468;2022-12-10T08:36:12;2.50;99.60
421;DHT22;63667;49.046;8.468;2022-12-10T08:38:39;2.60;99.60
421;DHT22;63667;49.046;8.468;2022-12-10T08:41:08;2.50;99.60
421;DHT22;63667;49.046;8.468;2022-12-10T08:43:34;2.60;99.60
421;DHT22;63667;49.046;8.468;2022-12-10T08:46:01;2.50;99.60
421;DHT22;63667;49.046;8.468;2022-12-10T08:48:27;2.50;99.60
421;DHT22;63667;49.046;8.468;2022-12-10T08:50:55;2.40;99.60
421;DHT22;63667;49.046;8.468;2022-12-10T08:53:22;2.20;99.60
421;DHT22;63667;49.046;8.468;2022-12-10T08:55:52;2.80;99.60
421;DHT22;63667;49.046;8.468;2022-12-10T08:58:20;2.90;99.60
421;DHT22;63667;49.046;8.468;2022-12-10T09:00:49;2.70;99.60
421;DHT22;63667;49.046;8.468;2022-12-10T09:03:17;2.70;99.60
421;DHT22;63667;49.046;8.468;2022-12-10T09:05:43;2.60;99.60
421;DHT22;63667;49.046;8.468;2022-12-10T09:08:10;2.50;99.60
421;DHT22;63667;49.046;8.468;2022-12-10T09:10:39;2.50;99.60
421;DHT22;63667;49.046;8.468;2022-12-10T09:13:05;2.70;99.60
421;DHT22;63667;49.046;8.468;2022-12-10T09:15:31;2.60;99.60
421;DHT22;63667;49.046;8.468;2022-12-10T09:17:58;2.50;99.60
421;DHT22;63667;49.046;8.468;2022-12-10T09:20:24;2.50;99.60
421;DHT22;63667;49.046;8.468;2022-12-10T09:22:51;2.50;99.60
421;DHT22;63667;49.046;8.468;2022-12-10T09:25:17;2.60;99.60
421;DHT22;63667;49.046;8.468;2022-12-10T09:27:47;2.70;99.60
421;DHT22;63667;49.046;8.468;2022-12-10T09:30:14;2.70;99.60
421;DHT22;63667;49.046;8.468;2022-12-10T09:32:40;2.70;99.60
421;DHT22;63667;49.046;8.468;2022-12-10T09:35:08;2.70;99.60
421;DHT22;63667;49.046;8.468;2022-12-10T09:37:34;2.60;99.60
421;DHT22;63667;49.046;8.468;2022-12-10T09:40:02;2.60;99.60
421;DHT22;63667;49.046;8.468;2022-12-10T09:45:09;2.50;99.60
421;DHT22;63667;49.046;8.468;2022-12-10T09:47:57;2.50;99.60
421;DHT22;63667;49.046;8.468;2022-12-10T09:53:19;2.60;99.60
421;DHT22;63667;49.046;8.468;2022-12-10T09:55:48;2.70;99.60
421;DHT22;63667;49.046;8.468;2022-12-10T09:58:21;2.70;99.60
421;DHT22;63667;49.046;8.468;2022-12-10T10:00:52;2.80;99.60
421;DHT22;63667;49.046;8.468;2022-12-10T10:03:20;2.90;99.60
421;DHT22;63667;49.046;8.468;2022-12-10T10:05:49;2.90;99.60
421;DHT22;63667;49.046;8.468;2022-12-10T10:08:34;2.80;99.60
421;DHT22;63667;49.046;8.468;2022-12-10T10:11:04;2.90;99.60
421;DHT22;63667;49.046;8.468;2022-12-10T10:13:39;2.90;99.60
421;DHT22;63667;49.046;8.468;2022-12-10T10:18:49;3.10;99.60
421;DHT22;63667;49.046;8.468;2022-12-10T10:21:24;3.10;99.60
421;DHT22;63667;49.046;8.468;2022-12-10T10:23:54;3.00;99.60
421;DHT22;63667;49.046;8.468;2022-12-10T10:26:26;3.00;99.60
421;DHT22;63667;49.046;8.468;2022-12-10T10:29:02;3.10;99.60
421;DHT22;63667;49.046;8.468;2022-12-10T10:31:33;3.10;99.60
421;DHT22;63667;49.046;8.468;2022-12-10T10:34:22;2.90;99.60
421;DHT22;63667;49.046;8.468;2022-12-10T10:37:00;2.70;99.60
421;DHT22;63667;49.046;8.468;2022-12-10T10:39:31;2.60;99.60
421;DHT22;63667;49.046;8.468;2022-12-10T10:42:08;2.70;99.60
421;DHT22;63667;49.046;8.468;2022-12-10T10:44:37;2.70;99.60
421;DHT22;63667;49.046;8.468;2022-12-10T10:47:25;2.80;99.60
421;DHT22;63667;49.046;8.468;2022-12-10T10:49:52;3.00;99.60
421;DHT22;63667;49.046;8.468;2022-12-10T10:52:20;2.80;99.60
421;DHT22;63667;49.046;8.468;2022-12-10T10:54:48;2.70;99.60
421;DHT22;63667;49.046;8.468;2022-12-10T10:57:27;2.70;99.60
421;DHT22;63667;49.046;8.468;2022-12-10T11:00:00;2.70;99.60
421;DHT22;63667;49.046;8.468;2022-12-10T11:02:34;3.00;99.60
421;DHT22;63667;49.046;8.468;2022-12-10T11:05:23;3.10;99.60
421;DHT22;63667;49.046;8.468;2022-12-10T11:08:02;3.10;99.60
421;DHT22;63667;49.046;8.468;2022-12-10T11:10:31;3.00;99.60
421;DHT22;63667;49.046;8.468;2022-12-10T11:13:15;3.20;99.60
421;DHT22;63667;49.046;8.468;2022-12-10T11:15:45;3.00;99.60
421;DHT22;63667;49.046;8.468;2022-12-10T11:21:18;3.00;99.60
421;DHT22;63667;49.046;8.468;2022-12-10T11:23:48;2.80;99.60
421;DHT22;63667;49.046;8.468;2022-12-10T11:31:57;3.00;99.60
421;DHT22;63667;49.046;8.468;2022-12-10T11:46:07;3.30;99.60
421;DHT22;63667;49.046;8.468;2022-12-10T11:48:58;3.40;99.60
421;DHT22;63667;49.046;8.468;2022-12-10T11:51:40;3.50;99.60
421;DHT22;63667;49.046;8.468;2022-12-10T11:57:22;3.20;99.60
421;DHT22;63667;49.046;8.468;2022-12-10T12:03:04;3.10;99.60
421;DHT22;63667;49.046;8.468;2022-12-10T12:05:47;3.30;99.60
421;DHT22;63667;49.046;8.468;2022-12-10T12:08:57;3.40;99.60
421;DHT22;63667;49.046;8.468;2022-12-10T12:14:19;3.30;99.60
421;DHT22;63667;49.046;8.468;2022-12-10T12:17:07;3.60;99.60
421;DHT22;63667;49.046;8.468;2022-12-10T12:19:44;3.70;99.60
421;DHT22;63667;49.046;8.468;2022-12-10T12:22:16;3.40;99.60
421;DHT22;63667;49.046;8.468;2022-12-10T12:24:57;3.10;99.60
421;DHT22;63667;49.046;8.468;2022-12-10T12:30:06;2.90;99.60
421;DHT22;63667;49.046;8.468;2022-12-10T12:32:49;3.00;99.60
421;DHT22;63667;49.046;8.468;2022-12-10T12:35:27;3.00;99.60
421;DHT22;63667;49.046;8.468;2022-12-10T12:38:06;2.80;99.60
421;DHT22;63667;49.046;8.468;2022-12-10T12:40:47;2.80;99.60
421;DHT22;63667;49.046;8.468;2022-12-10T12:43:21;3.00;99.60
421;DHT22;63667;49.046;8.468;2022-12-10T12:45:53;3.30;99.60
421;DHT22;63667;49.046;8.468;2022-12-10T12:53:51;4.00;99.60
421;DHT22;63667;49.046;8.468;2022-12-10T12:59:47;4.20;99.60
421;DHT22;63667;49.046;8.468;2022-12-10T13:05:37;3.70;99.60
421;DHT22;63667;49.046;8.468;2022-12-10T13:10:50;3.60;99.60
421;DHT22;63667;49.046;8.468;2022-12-10T13:13:38;3.60;99.60
421;DHT22;63667;49.046;8.468;2022-12-10T13:30:33;3.30;99.60
421;DHT22;63667;49.046;8.468;2022-12-10T13:33:09;3.30;99.60
421;DHT22;63667;49.046;8.468;2022-12-10T13:35:58;3.00;99.60
421;DHT22;63667;49.046;8.468;2022-12-10T13:38:26;3.10;99.60
421;DHT22;63667;49.046;8.468;2022-12-10T13:41:00;3.40;99.60
421;DHT22;63667;49.046;8.468;2022-12-10T13:43:52;3.60;99.60
421;DHT22;63667;49.046;8.468;2022-12-10T13:49:54;3.20;99.60
421;DHT22;63667;49.046;8.468;2022-12-10T13:52:35;3.20;99.60
421;DHT22;63667;49.046;8.468;2022-12-10T13:55:25;3.00;99.60
421;DHT22;63667;49.046;8.468;2022-12-10T14:00:23;3.10;99.60
421;DHT22;63667;49.046;8.468;2022-12-10T14:08:32;2.90;99.60
421;DHT22;63667;49.046;8.468;2022-12-10T14:11:01;3.00;99.60
421;DHT22;63667;49.046;8.468;2022-12-10T14:13:49;3.00;99.60
421;DHT22;63667;49.046;8.468;2022-12-10T14:16:20;3.00;99.60
421;DHT22;63667;49.046;8.468;2022-12-10T14:18:54;3.20;99.60
421;DHT22;63667;49.046;8.468;2022-12-10T14:21:21;3.10;99.60
421;DHT22;63667;49.046;8.468;2022-12-10T14:23:51;3.10;99.60
421;DHT22;63667;49.046;8.468;2022-12-10T14:26:27;3.00;99.60
421;DHT22;63667;49.046;8.468;2022-12-10T14:29:00;3.00;99.60
421;DHT22;63667;49.046;8.468;2022-12-10T14:31:38;3.20;99.60
421;DHT22;63667;49.046;8.468;2022-12-10T14:34:08;3.30;99.60
421;DHT22;63667;49.046;8.468;2022-12-10T14:36:45;3.40;99.60
421;DHT22;63667;49.046;8.468;2022-12-10T14:39:21;3.50;99.60
421;DHT22;63667;49.046;8.468;2022-12-10T14:42:13;3.50;99.60
421;DHT22;63667;49.046;8.468;2022-12-10T14:44:46;3.50;99.60
421;DHT22;63667;49.046;8.468;2022-12-10T14:47:16;3.40;99.60
421;DHT22;63667;49.046;8.468;2022-12-10T14:49:47;3.40;99.60
421;DHT22;63667;49.046;8.468;2022-12-10T14:52:19;3.30;99.60
421;DHT22;63667;49.046;8.468;2022-12-10T14:54:47;3.20;99.60
421;DHT22;63667;49.046;8.468;2022-12-10T15:00:06;3.40;99.60
421;DHT22;63667;49.046;8.468;2022-12-10T15:03:08;3.40;99.60
421;DHT22;63667;49.046;8.468;2022-12-10T15:05:36;3.40;99.60
421;DHT22;63667;49.046;8.468;2022-12-10T15:08:13;3.30;99.60
421;DHT22;63667;49.046;8.468;2022-12-10T15:10:45;3.30;99.60
421;DHT22;63667;49.046;8.468;2022-12-10T15:16:01;3.20;99.60
421;DHT22;63667;49.046;8.468;2022-12-10T15:18:37;3.30;99.60
421;DHT22;63667;49.046;8.468;2022-12-10T15:21:20;3.30;99.60
421;DHT22;63667;49.046;8.468;2022-12-10T15:23:47;3.20;99.60
421;DHT22;63667;49.046;8.468;2022-12-10T15:26:23;3.20;99.60
421;DHT22;63667;49.046;8.468;2022-12-10T15:31:53;3.30;99.60
421;DHT22;63667;49.046;8.468;2022-12-10T15:34:21;3.20;99.60
421;DHT22;63667;49.046;8.468;2022-12-10T15:36:53;3.30;99.60
421;DHT22;63667;49.046;8.468;2022-12-10T15:39:50;3.20;99.60
421;DHT22;63667;49.046;8.468;2022-12-10T15:42:37;3.20;99.60
421;DHT22;63667;49.046;8.468;2022-12-10T15:45:20;3.30;99.60
421;DHT22;63667;49.046;8.468;2022-12-10T15:47:53;3.20;99.60
421;DHT22;63667;49.046;8.468;2022-12-10T15:50:24;3.20;99.60
421;DHT22;63667;49.046;8.468;2022-12-10T15:52:52;3.20;99.60
421;DHT22;63667;49.046;8.468;2022-12-10T15:55:21;3.30;99.60
421;DHT22;63667;49.046;8.468;2022-12-10T15:57:48;3.40;99.60
421;DHT22;63667;49.046;8.468;2022-12-10T16:00:26;3.20;99.60
421;DHT22;63667;49.046;8.468;2022-12-10T16:02:59;2.90;99.60
421;DHT22;63667;49.046;8.468;2022-12-10T16:05:35;3.00;99.60
421;DHT22;63667;49.046;8.468;2022-12-10T16:10:41;3.10;99.60
421;DHT22;63667;49.046;8.468;2022-12-10T16:13:16;3.10;99.60
421;DHT22;63667;49.046;8.468;2022-12-10T16:15:52;3.00;99.60
421;DHT22;63667;49.046;8.468;2022-12-10T16:18:20;3.00;99.60
421;DHT22;63667;49.046;8.468;2022-12-10T16:20:47;2.80;99.60
421;DHT22;63667;49.046;8.468;2022-12-10T16:23:14;2.70;99.60
421;DHT22;63667;49.046;8.468;2022-12-10T16:25:43;2.70;99.60
421;DHT22;63667;49.046;8.468;2022-12-10T16:28:14;2.70;99.60
421;DHT22;63667;49.046;8.468;2022-12-10T16:33:12;2.50;99.60
421;DHT22;63667;49.046;8.468;2022-12-10T16:35:40;2.50;99.60
421;DHT22;63667;49.046;8.468;2022-12-10T16:38:08;2.50;99.60
421;DHT22;63667;49.046;8.468;2022-12-10T16:40:36;2.50;99.60
421;DHT22;63667;49.046;8.468;2022-12-10T16:43:04;2.50;99.60
421;DHT22;63667;49.046;8.468;2022-12-10T16:45:37;2.30;99.60
421;DHT22;63667;49.046;8.468;2022-12-10T16:48:04;2.30;99.60
421;DHT22;63667;49.046;8.468;2022-12-10T16:50:31;2.30;99.60
421;DHT22;63667;49.046;8.468;2022-12-10T16:53:22;2.30;99.60
421;DHT22;63667;49.046;8.468;2022-12-10T16:55:50;2.30;99.60
421;DHT22;63667;49.046;8.468;2022-12-10T16:58:17;2.40;99.60
421;DHT22;63667;49.046;8.468;2022-12-10T17:00:48;2.40;99.60
421;DHT22;63667;49.046;8.468;2022-12-10T17:03:19;2.50;99.60
421;DHT22;63667;49.046;8.468;2022-12-10T17:05:52;2.50;99.60
421;DHT22;63667;49.046;8.468;2022-12-10T17:08:19;2.40;99.60
421;DHT22;63667;49.046;8.468;2022-12-10T17:10:47;2.50;99.60
421;DHT22;63667;49.046;8.468;2022-12-10T17:13:22;2.50;99.60
421;DHT22;63667;49.046;8.468;2022-12-10T17:15:50;2.50;99.60
421;DHT22;63667;49.046;8.468;2022-12-10T17:18:18;2.60;99.60
421;DHT22;63667;49.046;8.468;2022-12-10T17:20:45;2.50;99.60
421;DHT22;63667;49.046;8.468;2022-12-10T17:23:13;2.60;99.60
421;DHT22;63667;49.046;8.468;2022-12-10T17:25:42;2.70;99.60
421;DHT22;63667;49.046;8.468;2022-12-10T17:28:17;2.50;99.60
421;DHT22;63667;49.046;8.468;2022-12-10T17:30:45;2.60;99.60
421;DHT22;63667;49.046;8.468;2022-12-10T17:33:17;2.50;99.60
421;DHT22;63667;49.046;8.468;2022-12-10T17:35:45;2.40;99.60
421;DHT22;63667;49.046;8.468;2022-12-10T17:38:18;2.30;99.60
421;DHT22;63667;49.046;8.468;2022-12-10T17:40:45;2.30;99.60
421;DHT22;63667;49.046;8.468;2022-12-10T17:43:13;2.20;99.60
421;DHT22;63667;49.046;8.468;2022-12-10T17:45:41;2.20;99.60
421;DHT22;63667;49.046;8.468;2022-12-10T17:48:16;2.40;99.60
421;DHT22;63667;49.046;8.468;2022-12-10T17:50:45;2.50;99.60
421;DHT22;63667;49.046;8.468;2022-12-10T17:53:13;2.60;99.60
421;DHT22;63667;49.046;8.468;2022-12-10T17:55:44;2.40;99.60
421;DHT22;63667;49.046;8.468;2022-12-10T17:58:12;2.20;99.60
421;DHT22;63667;49.046;8.468;2022-12-10T18:00:39;2.00;99.60
421;DHT22;63667;49.046;8.468;2022-12-10T18:03:07;2.00;99.60
421;DHT22;63667;49.046;8.468;2022-12-10T18:05:35;1.90;99.60
421;DHT22;63667;49.046;8.468;2022-12-10T18:08:02;1.80;99.60
421;DHT22;63667;49.046;8.468;2022-12-10T18:10:30;1.70;99.60
421;DHT22;63667;49.046;8.468;2022-12-10T18:12:58;1.50;99.60
421;DHT22;63667;49.046;8.468;2022-12-10T18:15:27;1.40;99.60
421;DHT22;63667;49.046;8.468;2022-12-10T18:17:55;1.40;99.60
421;DHT22;63667;49.046;8.468;2022-12-10T18:20:26;1.20;99.60
421;DHT22;63667;49.046;8.468;2022-12-10T18:22:53;1.10;99.60
421;DHT22;63667;49.046;8.468;2022-12-10T18:25:21;1.10;99.60
421;DHT22;63667;49.046;8.468;2022-12-10T18:27:48;1.10;99.60
421;DHT22;63667;49.046;8.468;2022-12-10T18:30:20;1.00;99.60
421;DHT22;63667;49.046;8.468;2022-12-10T18:32:48;0.80;99.60
421;DHT22;63667;49.046;8.468;2022-12-10T18:35:16;1.00;99.60
421;DHT22;63667;49.046;8.468;2022-12-10T18:37:44;1.00;99.60
421;DHT22;63667;49.046;8.468;2022-12-10T18:40:19;0.90;99.60
421;DHT22;63667;49.046;8.468;2022-12-10T18:42:47;0.80;99.60
421;DHT22;63667;49.046;8.468;2022-12-10T18:45:18;0.90;99.60